createdAt,value
2023-03-04T00:00:32.184Z,72.95
2023-03-04T00:02:59.795Z,72.80
2023-03-04T00:05:27.504Z,72.59
2023-03-04T00:07:55.140Z,72.40
2023-03-04T00:10:22.761Z,73.06
2023-03-04T00:12:50.331Z,72.71
2023-03-04T00:15:17.948Z,73.09
2023-03-04T00:17:46.323Z,73.21
2023-03-04T00:20:14.494Z,72.78
2023-03-04T00:22:42.577Z,73.00
2023-03-04T00:25:10.409Z,73.13
2023-03-04T00:27:37.940Z,73.01
2023-03-04T00:30:07.197Z,73.70
2023-03-04T00:32:34.832Z,73.26
2023-03-04T00:35:04.266Z,73.61
2023-03-04T00:37:31.919Z,73.62
2023-03-04T00:39:59.535Z,73.66
2023-03-04T00:42:27.176Z,73.59
2023-03-04T00:44:54.691Z,74.08
2023-03-04T00:47:22.264Z,74.08
2023-03-04T00:49:49.892Z,73.97
2023-03-04T00:52:17.642Z,73.53
2023-03-04T00:54:45.168Z,73.72
2023-03-04T00:57:12.746Z,74.40
2023-03-04T00:59:40.926Z,73.89
2023-03-04T01:02:08.499Z,74.03
2023-03-04T01:04:36.656Z,74.15
2023-03-04T01:07:04.589Z,74.58
2023-03-04T01:09:32.220Z,74.52
2023-03-04T01:11:59.934Z,74.84
2023-03-04T01:14:27.480Z,74.78
2023-03-04T01:16:55.209Z,74.87
2023-03-04T01:19:23.138Z,75.00
2023-03-04T01:21:50.751Z,75.03
2023-03-04T01:24:18.274Z,74.68
2023-03-04T01:26:45.854Z,74.70
2023-03-04T01:29:13.466Z,74.80
2023-03-04T01:31:41.187Z,74.54
2023-03-04T01:34:10.007Z,75.05
2023-03-04T01:36:37.647Z,74.55
2023-03-04T01:39:05.344Z,75.32
2023-03-04T01:41:33.129Z,74.88
2023-03-04T01:44:02.515Z,75.14
2023-03-04T01:46:31.621Z,75.41
2023-03-04T01:49:00.170Z,75.36
2023-03-04T01:51:27.894Z,75.45
2023-03-04T01:53:56.112Z,74.98
2023-03-04T01:56:30.912Z,75.61
2023-03-04T01:59:16.702Z,75.34
2023-03-04T02:01:49.916Z,75.83
2023-03-04T02:04:20.599Z,75.18
2023-03-04T02:06:49.872Z,75.78
2023-03-04T02:09:18.600Z,75.14
2023-03-04T02:11:47.681Z,75.92
2023-03-04T02:14:15.685Z,75.35
2023-03-04T02:16:43.713Z,75.91
2023-03-04T02:19:17.621Z,75.93
2023-03-04T02:21:45.338Z,75.99
2023-03-04T02:24:24.933Z,75.77
2023-03-04T02:26:52.616Z,75.58
2023-03-04T02:29:20.366Z,76.10
2023-03-04T02:31:51.286Z,76.00
2023-03-04T02:34:22.172Z,75.88
2023-03-04T02:36:52.879Z,76.01
2023-03-04T02:39:20.445Z,76.65
2023-03-04T02:41:50.819Z,76.37
2023-03-04T02:44:24.471Z,76.43
2023-03-04T02:46:53.750Z,76.01
2023-03-04T02:49:22.834Z,76.02
2023-03-04T02:52:02.991Z,75.89
2023-03-04T02:54:31.120Z,75.98
2023-03-04T02:57:02.226Z,75.96
2023-03-04T02:59:30.526Z,76.03
2023-03-04T03:01:58.552Z,75.97
2023-03-04T03:04:27.324Z,75.37
2023-03-04T03:06:55.945Z,76.03
2023-03-04T03:09:23.564Z,75.64
2023-03-04T03:11:51.165Z,75.85
2023-03-04T03:14:18.950Z,75.53
2023-03-04T03:16:46.616Z,75.67
2023-03-04T03:19:14.198Z,75.74
2023-03-04T03:21:42.009Z,75.58
2023-03-04T03:24:09.677Z,75.29
2023-03-04T03:26:37.365Z,75.46
2023-03-04T03:29:04.891Z,74.84
2023-03-04T03:31:32.649Z,75.33
2023-03-04T03:34:00.989Z,75.05
2023-03-04T03:36:28.902Z,74.84
2023-03-04T03:38:56.519Z,75.00
2023-03-04T03:41:24.291Z,75.32
2023-03-04T03:43:52.017Z,75.17
2023-03-04T03:46:19.579Z,75.18
2023-03-04T03:48:47.194Z,74.87
2023-03-04T03:51:15.544Z,74.82
2023-03-04T03:53:43.142Z,75.17
2023-03-04T03:56:10.681Z,75.29
2023-03-04T03:58:38.275Z,74.79
2023-03-04T04:01:05.813Z,74.85
2023-03-04T04:03:33.419Z,74.52
2023-03-04T04:06:01.047Z,74.57
2023-03-04T04:08:29.879Z,74.63
2023-03-04T04:10:57.479Z,74.70
2023-03-04T04:13:25.318Z,74.69
2023-03-04T04:15:53.214Z,74.60
2023-03-04T04:18:20.919Z,74.84
2023-03-04T04:20:48.426Z,74.47
2023-03-04T04:23:16.012Z,74.62
2023-03-04T04:25:43.665Z,74.65
2023-03-04T04:28:11.230Z,74.62
2023-03-04T04:30:39.341Z,74.64
2023-03-04T04:33:07.107Z,74.46
2023-03-04T04:35:38.913Z,74.51
2023-03-04T04:38:08.892Z,74.34
2023-03-04T04:40:37.221Z,74.42
2023-03-04T04:43:04.839Z,74.10
2023-03-04T04:45:32.682Z,74.64
2023-03-04T04:48:00.294Z,74.03
2023-03-04T04:50:28.312Z,74.13
2023-03-04T04:52:55.838Z,74.53
2023-03-04T04:55:23.359Z,74.67
2023-03-04T04:57:50.934Z,74.39
2023-03-04T05:00:19.169Z,74.51
2023-03-04T05:02:46.683Z,74.14
2023-03-04T05:05:14.395Z,74.52
2023-03-04T05:07:41.964Z,74.50
2023-03-04T05:10:10.308Z,74.42
2023-03-04T05:12:37.848Z,74.64
2023-03-04T05:15:05.882Z,74.58
2023-03-04T05:17:33.501Z,74.98
2023-03-04T05:20:01.059Z,74.92
2023-03-04T05:22:28.603Z,74.55
2023-03-04T05:24:57.316Z,74.83
2023-03-04T05:27:24.894Z,74.83
2023-03-04T05:29:52.518Z,74.75
2023-03-04T05:32:20.138Z,74.70
2023-03-04T05:34:47.918Z,74.82
2023-03-04T05:37:15.487Z,75.00
2023-03-04T05:39:43.015Z,74.39
2023-03-04T05:42:10.695Z,74.81
2023-03-04T05:44:38.614Z,74.57
2023-03-04T05:47:06.269Z,74.60
2023-03-04T05:49:33.807Z,74.91
2023-03-04T05:52:01.422Z,74.70
2023-03-04T05:54:29.003Z,74.83
2023-03-04T05:56:56.660Z,74.79
2023-03-04T05:59:24.408Z,74.52
2023-03-04T06:01:52.244Z,74.84
2023-03-04T06:04:19.895Z,74.52
2023-03-04T06:06:47.449Z,74.68
2023-03-04T06:09:15.217Z,74.64
2023-03-04T06:11:42.832Z,74.76
2023-03-04T06:14:10.449Z,74.61
2023-03-04T06:16:38.112Z,74.60
2023-03-04T06:19:05.637Z,74.54
2023-03-04T06:21:33.145Z,74.55
2023-03-04T06:24:00.684Z,74.76
2023-03-04T06:26:28.181Z,74.83
2023-03-04T06:28:57.154Z,74.79
2023-03-04T06:31:24.751Z,74.49
2023-03-04T06:33:52.420Z,74.41
2023-03-04T06:36:20.009Z,74.58
2023-03-04T06:38:47.629Z,74.59
2023-03-04T06:41:15.206Z,74.40
2023-03-04T06:43:43.149Z,74.73
2023-03-04T06:46:10.754Z,74.38
2023-03-04T06:48:38.560Z,74.57
2023-03-04T06:51:10.799Z,74.46
2023-03-04T06:53:39.560Z,74.57
2023-03-04T06:56:08.744Z,74.49
2023-03-04T06:58:36.616Z,74.60
2023-03-04T07:01:22.074Z,74.53
2023-03-04T07:03:50.906Z,74.50
2023-03-04T07:06:20.614Z,74.67
2023-03-04T07:08:48.286Z,74.79
2023-03-04T07:11:16.405Z,74.82
2023-03-04T07:13:44.574Z,74.87
2023-03-04T07:16:15.691Z,74.75
2023-03-04T07:18:43.730Z,74.67
2023-03-04T07:21:12.545Z,74.72
2023-03-04T07:23:40.305Z,74.94
2023-03-04T07:26:07.926Z,74.72
2023-03-04T07:28:36.580Z,74.80
2023-03-04T07:31:21.304Z,74.62
2023-03-04T07:33:49.405Z,74.68
2023-03-04T07:36:17.052Z,74.70
2023-03-04T07:38:50.024Z,74.64
2023-03-04T07:41:18.835Z,74.76
2023-03-04T07:43:46.662Z,74.59
2023-03-04T07:46:14.652Z,75.00
2023-03-04T07:48:42.274Z,74.58
2023-03-04T07:51:30.531Z,74.59
2023-03-04T07:54:01.857Z,74.55
2023-03-04T07:56:32.559Z,74.50
2023-03-04T07:59:01.316Z,74.55
2023-03-04T08:01:34.741Z,74.13
2023-03-04T08:04:03.056Z,73.89
2023-03-04T08:06:30.788Z,73.73
2023-03-04T08:09:00.861Z,73.34
2023-03-04T08:11:30.696Z,73.37
2023-03-04T08:13:59.003Z,73.25
2023-03-04T08:16:27.029Z,73.44
2023-03-04T08:19:00.997Z,73.49
2023-03-04T08:21:29.021Z,73.17
2023-03-04T08:23:59.841Z,72.94
2023-03-04T08:26:31.707Z,72.71
2023-03-04T08:29:02.565Z,73.02
2023-03-04T08:31:30.209Z,73.36
2023-03-04T08:33:57.911Z,73.37
2023-03-04T08:36:25.654Z,73.32
2023-03-04T08:38:53.511Z,73.26
2023-03-04T08:41:21.369Z,73.17
2023-03-04T08:43:48.923Z,73.87
2023-03-04T08:46:16.632Z,73.89
2023-03-04T08:48:44.458Z,73.01
2023-03-04T08:51:15.044Z,71.90
2023-03-04T08:53:42.939Z,70.11
2023-03-04T08:56:12.071Z,67.72
2023-03-04T08:58:40.077Z,66.32
2023-03-04T09:01:10.353Z,63.29
2023-03-04T09:03:38.609Z,61.94
2023-03-04T09:06:07.555Z,60.18
2023-03-04T09:08:35.353Z,58.63
2023-03-04T09:11:04.184Z,57.42
2023-03-04T09:13:32.095Z,55.82
2023-03-04T09:16:00.574Z,54.07
2023-03-04T09:18:28.889Z,52.70
2023-03-04T09:20:56.878Z,51.30
2023-03-04T09:23:24.503Z,50.17
2023-03-04T09:25:52.280Z,49.18
2023-03-04T09:28:20.207Z,48.17
2023-03-04T09:30:48.542Z,47.21
2023-03-04T09:33:16.646Z,46.42
2023-03-04T09:35:44.673Z,45.92
2023-03-04T09:38:12.490Z,45.19
2023-03-04T09:40:43.405Z,45.06
2023-03-04T09:43:25.008Z,45.18
2023-03-04T09:45:57.140Z,44.93
2023-03-04T09:48:29.555Z,43.85
2023-03-04T09:51:23.732Z,43.32
2023-03-04T09:54:16.326Z,42.95
2023-03-04T09:56:44.537Z,42.95
2023-03-04T09:59:16.445Z,41.78
2023-03-04T10:01:54.015Z,40.72
2023-03-04T10:04:44.587Z,40.31
2023-03-04T10:07:27.302Z,39.29
2023-03-04T10:10:07.202Z,38.86
2023-03-04T10:12:40.217Z,38.56
2023-03-04T10:15:17.737Z,37.62
2023-03-04T10:17:51.560Z,37.55
2023-03-04T10:20:23.762Z,36.73
2023-03-04T10:22:56.562Z,36.11
2023-03-04T10:25:30.233Z,35.10
2023-03-04T10:28:12.651Z,35.03
2023-03-04T10:30:53.534Z,34.67
2023-03-04T10:33:26.184Z,34.34
2023-03-04T10:36:26.195Z,33.31
2023-03-04T10:38:56.938Z,32.98
2023-03-04T10:41:27.850Z,32.67
2023-03-04T10:44:14.450Z,31.86
2023-03-04T10:46:44.687Z,32.02
2023-03-04T10:49:15.239Z,31.02
2023-03-04T10:51:49.360Z,30.91
2023-03-04T10:54:25.999Z,30.95
2023-03-04T10:57:05.606Z,30.39
2023-03-04T10:59:42.117Z,30.63
2023-03-04T11:02:25.383Z,30.24
2023-03-04T11:05:06.293Z,30.11
2023-03-04T11:07:54.424Z,29.60
2023-03-04T11:10:38.318Z,29.62
2023-03-04T11:13:11.951Z,29.17
2023-03-04T11:16:06.079Z,28.62
2023-03-04T11:18:53.543Z,27.95
2023-03-04T11:21:29.027Z,28.02
2023-03-04T11:24:04.405Z,28.52
2023-03-04T11:26:52.732Z,28.13
2023-03-04T11:29:28.521Z,28.20
2023-03-04T11:32:04.443Z,28.20
2023-03-04T11:34:52.270Z,27.70
2023-03-04T11:37:35.760Z,27.84
2023-03-04T11:40:24.390Z,27.54
2023-03-04T11:42:59.915Z,27.93
2023-03-04T11:45:59.821Z,27.52
2023-03-04T11:48:49.288Z,27.77
2023-03-04T11:51:33.084Z,27.33
2023-03-04T11:54:15.705Z,27.08
2023-03-04T11:56:51.865Z,26.97
2023-03-04T11:59:44.465Z,27.10
2023-03-04T12:02:14.724Z,27.26
2023-03-04T12:04:54.546Z,26.87
2023-03-04T12:07:51.047Z,26.66
2023-03-04T12:10:37.134Z,26.30
2023-03-04T12:13:19.397Z,26.46
2023-03-04T12:15:52.823Z,26.40
2023-03-04T12:18:20.563Z,26.60
2023-03-04T12:21:01.346Z,26.36
2023-03-04T12:23:52.345Z,26.10
2023-03-04T12:26:52.249Z,26.43
2023-03-04T12:29:31.540Z,26.18
2023-03-04T12:32:08.396Z,26.35
2023-03-04T12:35:18.451Z,26.27
2023-03-04T12:37:51.841Z,26.27
2023-03-04T12:40:37.657Z,26.20
2023-03-04T12:43:21.005Z,26.32
2023-03-04T12:46:00.715Z,25.92
2023-03-04T12:48:39.978Z,26.06
2023-03-04T12:51:22.783Z,26.27
2023-03-04T12:54:10.626Z,26.53
2023-03-04T12:56:48.888Z,26.46
2023-03-04T12:59:20.589Z,26.71
2023-03-04T13:02:05.539Z,26.18
2023-03-04T13:04:52.535Z,26.09
2023-03-04T13:07:32.170Z,26.24
2023-03-04T13:10:10.904Z,25.77
2023-03-04T13:13:01.393Z,25.97
2023-03-04T13:15:39.441Z,26.62
2023-03-04T13:18:36.790Z,27.55
2023-03-04T13:21:21.882Z,28.40
2023-03-04T13:23:50.478Z,29.68
2023-03-04T13:26:35.467Z,30.60
2023-03-04T13:29:11.108Z,30.83
2023-03-04T13:32:03.981Z,31.56
2023-03-04T13:34:54.041Z,32.21
2023-03-04T13:37:30.658Z,32.67
2023-03-04T13:40:35.261Z,33.68
2023-03-04T13:43:40.698Z,34.39
2023-03-04T13:46:20.196Z,34.84
2023-03-04T13:48:50.713Z,35.04
2023-03-04T13:51:30.634Z,35.84
2023-03-04T13:53:58.247Z,35.37
2023-03-04T13:56:59.657Z,35.52
2023-03-04T13:59:57.649Z,35.75
2023-03-04T14:02:26.265Z,36.29
2023-03-04T14:04:54.598Z,36.57
2023-03-04T14:07:32.451Z,36.60
2023-03-04T14:10:12.077Z,36.85
2023-03-04T14:12:58.121Z,37.63
2023-03-04T14:15:33.578Z,38.18
2023-03-04T14:18:05.889Z,38.44
2023-03-04T14:20:35.748Z,38.69
2023-03-04T14:23:25.526Z,39.12
2023-03-04T14:26:04.881Z,39.61
2023-03-04T14:28:32.506Z,39.30
2023-03-04T14:31:00.158Z,39.72
2023-03-04T14:33:30.474Z,40.18
2023-03-04T14:36:02.811Z,40.00
2023-03-04T14:38:41.683Z,40.08
2023-03-04T14:41:09.188Z,40.07
2023-03-04T14:43:42.522Z,40.39
2023-03-04T14:46:15.789Z,40.94
2023-03-04T14:48:50.523Z,41.06
2023-03-04T14:51:46.092Z,40.68
2023-03-04T14:54:38.053Z,40.94
2023-03-04T14:57:35.825Z,42.07
2023-03-04T15:00:21.854Z,41.52
2023-03-04T15:03:02.996Z,41.90
2023-03-04T15:05:37.449Z,42.20
2023-03-04T15:08:19.208Z,42.18
2023-03-04T15:10:59.019Z,43.11
2023-03-04T15:13:47.006Z,43.60
2023-03-04T15:16:19.493Z,42.52
2023-03-04T15:19:23.991Z,42.74
2023-03-04T15:21:54.410Z,42.99
2023-03-04T15:24:23.328Z,43.60
2023-03-04T15:26:52.836Z,43.64
2023-03-04T15:29:22.413Z,44.15
2023-03-04T15:31:52.099Z,43.84
2023-03-04T15:34:21.529Z,44.27
2023-03-04T15:36:51.421Z,43.86
2023-03-04T15:39:22.184Z,44.32
2023-03-04T15:41:50.991Z,44.28
2023-03-04T15:44:20.546Z,44.46
2023-03-04T15:46:48.477Z,45.31
2023-03-04T15:49:16.486Z,45.59
2023-03-04T15:51:44.996Z,45.74
2023-03-04T15:54:14.377Z,45.52
2023-03-04T15:56:43.009Z,45.48
2023-03-04T15:59:13.898Z,45.88
2023-03-04T16:01:42.322Z,45.55
2023-03-04T16:04:19.427Z,46.23
2023-03-04T16:06:50.476Z,46.72
2023-03-04T16:09:22.149Z,46.91
2023-03-04T16:11:50.546Z,47.18
2023-03-04T16:14:19.070Z,47.15
2023-03-04T16:16:53.510Z,47.26
2023-03-04T16:19:22.036Z,47.34
2023-03-04T16:22:12.740Z,48.33
2023-03-04T16:24:41.091Z,47.95
2023-03-04T17:34:55.846Z,51.66
2023-03-04T17:37:23.750Z,52.19
2023-03-04T17:39:51.570Z,52.36
2023-03-04T17:42:19.462Z,52.12
2023-03-04T17:44:47.036Z,52.43
2023-03-04T17:47:16.161Z,52.72
2023-03-04T17:49:43.747Z,52.63
2023-03-04T17:52:12.101Z,52.92
2023-03-04T17:54:39.757Z,53.11
2023-03-04T17:57:09.857Z,52.92
2023-03-04T17:59:37.590Z,53.20
2023-03-04T18:02:05.967Z,53.28
2023-03-04T18:04:34.850Z,53.49
2023-03-04T18:07:02.555Z,52.98
2023-03-04T18:09:33.062Z,53.56
2023-03-04T18:12:01.458Z,53.66
2023-03-04T18:14:31.555Z,53.75
2023-03-04T18:16:59.229Z,53.54
2023-03-04T18:19:26.914Z,53.68
2023-03-04T18:21:54.506Z,53.64
2023-03-04T18:24:22.025Z,53.86
2023-03-04T18:26:51.772Z,53.78
2023-03-04T18:29:20.857Z,53.94
2023-03-04T18:31:48.466Z,54.22
2023-03-04T18:34:16.214Z,54.36
2023-03-04T18:36:43.896Z,53.89
2023-03-04T18:39:11.517Z,54.22
2023-03-04T18:41:39.098Z,54.36
2023-03-04T18:44:09.786Z,54.54
2023-03-04T18:46:40.492Z,54.62
2023-03-04T18:49:09.058Z,54.59
2023-03-04T18:51:36.623Z,54.40
2023-03-04T18:54:04.538Z,54.56
2023-03-04T18:56:38.364Z,54.55
2023-03-04T18:59:20.559Z,54.63
2023-03-04T19:01:49.977Z,54.90
2023-03-04T19:04:20.154Z,55.42
2023-03-04T19:06:48.923Z,55.01
2023-03-04T19:09:16.648Z,55.56
2023-03-04T19:11:44.418Z,55.56
2023-03-04T19:14:12.288Z,55.45
2023-03-04T19:16:40.593Z,55.48
2023-03-04T19:19:09.436Z,55.66
2023-03-04T19:21:38.474Z,55.14
2023-03-04T19:24:06.522Z,55.08
2023-03-04T19:26:34.355Z,55.42
2023-03-04T19:29:01.965Z,55.50
2023-03-04T19:31:29.550Z,55.70
2023-03-04T19:33:57.109Z,55.71
2023-03-04T19:36:25.774Z,55.57
2023-03-04T19:38:53.712Z,55.76
2023-03-04T19:41:21.396Z,55.38
2023-03-04T19:43:51.268Z,55.67
2023-03-04T19:46:18.932Z,55.47
2023-03-04T19:48:50.141Z,56.15
2023-03-04T19:51:20.869Z,55.67
2023-03-04T19:53:51.219Z,56.35
2023-03-04T19:56:21.025Z,56.58
2023-03-04T19:58:49.012Z,56.40
2023-03-04T20:01:31.312Z,56.74
2023-03-04T20:04:02.017Z,56.03
2023-03-04T20:09:42.551Z,56.91
2023-03-04T20:12:10.555Z,56.95
2023-03-04T20:14:39.377Z,57.20
2023-03-04T20:17:07.271Z,56.98
2023-03-04T20:19:35.343Z,56.93
2023-03-04T20:22:05.730Z,57.18
2023-03-04T20:24:33.461Z,57.11
2023-03-04T20:27:01.145Z,57.40
2023-03-04T20:29:28.992Z,57.33
2023-03-04T20:31:56.705Z,57.06
2023-03-04T20:34:26.736Z,57.25
2023-03-04T20:36:54.350Z,57.74
2023-03-04T20:39:29.290Z,57.64
2023-03-04T20:41:58.657Z,58.07
2023-03-04T20:44:27.369Z,57.99
2023-03-04T20:46:55.423Z,57.91
2023-03-04T20:49:26.030Z,57.89
2023-03-04T20:52:08.138Z,57.96
2023-03-04T20:54:38.527Z,58.11
2023-03-04T20:57:08.090Z,58.29
2023-03-04T20:59:36.054Z,57.95
2023-03-04T21:02:04.700Z,57.76
2023-03-04T21:04:34.666Z,57.88
2023-03-04T21:07:02.481Z,58.33
2023-03-04T21:09:30.258Z,58.37
2023-03-04T21:11:59.779Z,58.02
2023-03-04T21:14:30.924Z,58.06
2023-03-04T21:17:01.528Z,58.71
2023-03-04T21:19:37.816Z,58.70
2023-03-04T21:22:06.520Z,58.17
2023-03-04T21:24:36.261Z,58.49
2023-03-04T21:27:04.720Z,58.36
2023-03-04T21:29:32.631Z,58.93
2023-03-04T21:32:23.384Z,58.80
2023-03-04T21:34:53.293Z,58.50
2023-03-04T21:37:22.741Z,58.49
2023-03-04T21:39:50.387Z,58.73
2023-03-04T21:42:18.876Z,58.99
2023-03-04T21:44:51.105Z,58.69
2023-03-04T21:47:21.261Z,59.44
2023-03-04T21:49:49.689Z,59.34
2023-03-04T21:52:19.050Z,58.73
2023-03-04T21:54:47.815Z,58.98
2023-03-04T21:57:16.237Z,59.74
2023-03-04T21:59:43.826Z,59.20
2023-03-04T22:02:19.534Z,59.68
2023-03-04T22:04:47.678Z,59.96
2023-03-04T22:07:15.644Z,59.84
2023-03-04T22:09:43.788Z,59.76
2023-03-04T22:12:11.693Z,59.59
2023-03-04T22:14:39.340Z,59.29
2023-03-04T22:17:07.071Z,59.45
2023-03-04T22:19:34.828Z,59.55
2023-03-04T22:22:02.457Z,59.73
2023-03-04T22:24:30.823Z,59.90
2023-03-04T22:26:59.982Z,59.78
2023-03-04T22:29:27.727Z,59.69
2023-03-04T22:31:55.477Z,59.62
2023-03-04T22:34:23.297Z,59.63
2023-03-04T22:36:50.864Z,59.63
2023-03-04T22:39:23.300Z,60.21
2023-03-04T22:41:51.051Z,59.82
2023-03-04T22:44:19.123Z,60.11
2023-03-04T22:46:46.852Z,59.55
2023-03-04T22:49:14.815Z,60.41
2023-03-04T22:51:44.179Z,60.54
2023-03-04T22:54:14.180Z,60.70
2023-03-04T22:56:41.847Z,60.12
2023-03-04T22:59:09.530Z,61.15
2023-03-04T23:01:37.398Z,60.90
2023-03-04T23:04:05.206Z,61.25
2023-03-04T23:06:33.184Z,60.83
2023-03-04T23:09:00.820Z,61.31
2023-03-04T23:11:31.028Z,60.89
2023-03-04T23:14:02.289Z,61.76
2023-03-04T23:16:30.086Z,61.36
2023-03-04T23:18:59.431Z,61.27
2023-03-04T23:21:33.927Z,61.31
2023-03-04T23:24:02.659Z,61.67
2023-03-04T23:26:33.140Z,61.76
2023-03-04T23:29:03.050Z,62.18
2023-03-04T23:31:32.649Z,62.19
2023-03-04T23:34:01.613Z,61.77
2023-03-04T23:36:32.090Z,62.16
2023-03-04T23:39:00.400Z,61.66
2023-03-04T23:41:30.974Z,61.64
2023-03-04T23:43:59.538Z,61.97
2023-03-04T23:46:28.666Z,61.83
2023-03-04T23:48:56.992Z,62.07
2023-03-04T23:51:27.667Z,62.02
2023-03-04T23:53:56.830Z,62.54
2023-03-04T23:56:30.014Z,62.23
2023-03-04T23:58:58.466Z,62.88
